Mobile Regional Airport
KMOB : now visible

Airfield :











YOU CAN JOIN US ON...

 
LOGIN :

Register | Disclaimer

   EN    FR    IT 

 









Legend :    VFR   Marginal VFR   IFR   Intensive IFR   Very Intensive IFR
Visi :
Ceiling :
>= 8 km
>= 3000ft
5 to 8 km
1000 to 3000 ft
1500m to 5 km
500 to 1000 ft
800 to 1500m
200 to 500 ft
< 800m
< 200 ft
Symbols :   Thunderstorms  Fog  Heavy snow  Heavy precipitations  Wind > 20 kt






- Airport Elevation : 219 ft
- IATA code : MOB


KMOB - Mobile Regional

CURRENT METAR :
  • 192356Z 18006KT 10SM FEW022 SCT045 SCT140 25/21 A3003 RMK AO2 SLP165 T02500206 10300 20250 53003

EXPIRED METARs :
  • 192256Z 19011KT 10SM FEW023 SCT045 27/21 A3002 RMK AO2 SLP162 T02670206
  • 192156Z 20010KT 10SM SCT029 BKN050 27/21 A3002 RMK AO2 SLP163 T02720206
  • 192056Z 19009G19KT 10SM SCT031 BKN050 29/21 A3002 RMK AO2 SLP161 T02890206 56018
  • 191956Z 17007G15KT 10SM SCT042 BKN055 29/21 A3003 RMK AO2 SLP165 T02940206

TAF KMOB
Valid from the 20 at 00:00 until the 21 at 00:00 UTC


192331Z 2000/2024 19011KT P6SM FEW022 SCT200
FM200600 21002KT 6SM BR SCT012 OVC140
FM200700 00000KT 6SM BR OVC003
FM200900 27002KT 4SM BR OVC003
FM201500 VRB03KT P6SM BKN011 OVC025
FM201800 16005KT P6SM BKN022 OVC030
PROB30 2018/2024 4SM -TSRA BR OVC015CB
KZHU FIR / North America



MET'MAP, your aeronautical weather chart ! - Copyright ORBIFLY December 2007 - Disclaimer

ORBIFLY MET'MAP TEAM :

Programming & Development : Alexandra Zaïnal
Original concept : Baudouin d'Aumeries
Technical & hardware support : Manuel Goepfert
Assistance : Marc-Olivier Méhu




SOURCES & CREDITS :

   NOAA       Earth
Advisory